NCAR-RAP Real-Time Weather Data

Output produced by METARs form (12 May 2021  11:24 UTC)
found at http://weather.rap.ucar.edu/surface/
 
KJMS 121056Z AUTO 19005KT 10SM CLR 02/M04 A3029 RMK AO2 SLP265 T00221039
KJMS 120956Z AUTO 18008KT 10SM CLR 03/M03 A3029 RMK AO2 SLP263 T00331033
KJMS 120856Z AUTO 19008KT 10SM CLR 04/M03 A3028 RMK AO2 SLP261 T00391033 50000
KJMS 120756Z AUTO 18007KT 10SM CLR 04/M04 A3028 RMK AO2 SLP262 T00391039
KJMS 120656Z AUTO 19006KT 10SM CLR 04/M04 A3028 RMK AO2 SLP262 T00391039
KJMS 120556Z AUTO 18007KT 10SM CLR 06/M03 A3028 RMK AO2 SLP260 T00611033 10178 20050 401891028 51003
KJMS 120456Z AUTO 19006KT 10SM CLR 06/M04 A3028 RMK AO2 SLP260 T00611044
KJMS 120356Z AUTO 18007KT 10SM CLR 09/M04 A3028 RMK AO2 SLP260 T00891039
KJMS 120256Z AUTO 18006KT 10SM CLR 09/M06 A3027 RMK AO2 SLP258 T00941056 53009
KJMS 120156Z AUTO 17006KT 10SM CLR 12/M06 A3026 RMK AO2 SLP253 T01221056
KJMS 120056Z AUTO 18009KT 10SM CLR 16/M05 A3025 RMK AO2 SLP250 T01611050
KJMS 112356Z AUTO 22004KT 10SM FEW090 18/M06 A3025 RMK AO2 SLP252 T01781056 10189 20161 55004
KJMS 112256Z AUTO VRB04KT 10SM CLR 18/M06 A3024 RMK AO2 SLP251 T01831056
KJMS 112156Z AUTO VRB05KT 10SM CLR 18/M06 A3024 RMK AO2 SLP251 T01831056
KJMS 112056Z AUTO VRB06G15KT 10SM CLR 18/M06 A3026 RMK AO2 SLP256 T01781061 56015